sensor_id;sensor_type;location;lat;lon;timestamp;P1;durP1;ratioP1;P2;durP2;ratioP2
32864;SDS011;19219;44.500;11.188;2023-12-20T00:01:35;5.93;;;4.20;;
32864;SDS011;19219;44.500;11.188;2023-12-20T00:04:01;10.45;;;5.93;;
32864;SDS011;19219;44.500;11.188;2023-12-20T00:06:27;8.52;;;5.35;;
32864;SDS011;19219;44.500;11.188;2023-12-20T00:08:53;8.20;;;4.82;;
32864;SDS011;19219;44.500;11.188;2023-12-20T00:11:18;8.63;;;4.60;;
32864;SDS011;19219;44.500;11.188;2023-12-20T00:13:44;8.88;;;4.97;;
32864;SDS011;19219;44.500;11.188;2023-12-20T00:16:10;11.25;;;4.97;;
32864;SDS011;19219;44.500;11.188;2023-12-20T00:18:36;7.28;;;5.45;;
32864;SDS011;19219;44.500;11.188;2023-12-20T00:21:01;7.10;;;4.70;;
32864;SDS011;19219;44.500;11.188;2023-12-20T00:23:27;7.55;;;4.95;;
32864;SDS011;19219;44.500;11.188;2023-12-20T00:25:53;12.32;;;5.32;;
32864;SDS011;19219;44.500;11.188;2023-12-20T00:28:18;15.07;;;6.60;;
32864;SDS011;19219;44.500;11.188;2023-12-20T00:30:44;11.57;;;7.13;;
32864;SDS011;19219;44.500;11.188;2023-12-20T00:33:10;10.45;;;6.25;;
32864;SDS011;19219;44.500;11.188;2023-12-20T00:35:35;10.05;;;6.90;;
32864;SDS011;19219;44.500;11.188;2023-12-20T00:38:01;7.80;;;5.57;;
32864;SDS011;19219;44.500;11.188;2023-12-20T00:40:27;9.02;;;5.40;;
32864;SDS011;19219;44.500;11.188;2023-12-20T00:42:52;7.60;;;4.75;;
32864;SDS011;19219;44.500;11.188;2023-12-20T00:45:18;8.02;;;4.50;;
32864;SDS011;19219;44.500;11.188;2023-12-20T00:47:44;10.60;;;5.45;;
32864;SDS011;19219;44.500;11.188;2023-12-20T00:50:10;6.63;;;5.63;;
32864;SDS011;19219;44.500;11.188;2023-12-20T00:52:35;7.40;;;5.07;;
32864;SDS011;19219;44.500;11.188;2023-12-20T00:55:01;11.52;;;5.32;;
32864;SDS011;19219;44.500;11.188;2023-12-20T00:57:28;8.52;;;5.55;;
32864;SDS011;19219;44.500;11.188;2023-12-20T00:59:54;9.85;;;5.40;;
32864;SDS011;19219;44.500;11.188;2023-12-20T01:02:20;9.63;;;4.72;;
32864;SDS011;19219;44.500;11.188;2023-12-20T01:04:45;6.60;;;4.43;;
32864;SDS011;19219;44.500;11.188;2023-12-20T01:07:11;5.82;;;4.03;;
32864;SDS011;19219;44.500;11.188;2023-12-20T01:09:37;6.78;;;5.15;;
32864;SDS011;19219;44.500;11.188;2023-12-20T01:12:03;8.90;;;5.40;;
32864;SDS011;19219;44.500;11.188;2023-12-20T01:14:29;7.93;;;4.32;;
32864;SDS011;19219;44.500;11.188;2023-12-20T01:16:54;5.43;;;4.18;;
32864;SDS011;19219;44.500;11.188;2023-12-20T01:19:20;9.60;;;5.15;;
32864;SDS011;19219;44.500;11.188;2023-12-20T01:21:46;6.68;;;4.38;;
32864;SDS011;19219;44.500;11.188;2023-12-20T01:24:12;9.52;;;4.38;;
32864;SDS011;19219;44.500;11.188;2023-12-20T01:26:37;6.72;;;3.90;;
32864;SDS011;19219;44.500;11.188;2023-12-20T01:29:03;8.07;;;4.15;;
32864;SDS011;19219;44.500;11.188;2023-12-20T01:31:29;7.38;;;4.93;;
32864;SDS011;19219;44.500;11.188;2023-12-20T01:33:54;7.47;;;4.55;;
32864;SDS011;19219;44.500;11.188;2023-12-20T01:36:20;8.43;;;3.95;;
32864;SDS011;19219;44.500;11.188;2023-12-20T01:38:46;8.48;;;4.68;;
32864;SDS011;19219;44.500;11.188;2023-12-20T01:41:12;11.00;;;4.78;;
32864;SDS011;19219;44.500;11.188;2023-12-20T01:43:37;7.47;;;4.68;;
32864;SDS011;19219;44.500;11.188;2023-12-20T01:46:03;9.75;;;5.28;;
32864;SDS011;19219;44.500;11.188;2023-12-20T01:48:30;10.48;;;4.93;;
32864;SDS011;19219;44.500;11.188;2023-12-20T01:50:57;11.77;;;5.03;;
32864;SDS011;19219;44.500;11.188;2023-12-20T01:53:25;10.48;;;6.90;;
32864;SDS011;19219;44.500;11.188;2023-12-20T01:55:52;11.93;;;6.20;;
32864;SDS011;19219;44.500;11.188;2023-12-20T01:58:20;14.30;;;6.07;;
32864;SDS011;19219;44.500;11.188;2023-12-20T02:00:47;9.55;;;6.18;;
32864;SDS011;19219;44.500;11.188;2023-12-20T02:03:13;11.48;;;5.45;;
32864;SDS011;19219;44.500;11.188;2023-12-20T02:05:39;10.68;;;6.43;;
32864;SDS011;19219;44.500;11.188;2023-12-20T02:08:06;9.27;;;5.68;;
32864;SDS011;19219;44.500;11.188;2023-12-20T02:10:32;10.98;;;4.85;;
32864;SDS011;19219;44.500;11.188;2023-12-20T02:12:57;12.10;;;5.93;;
32864;SDS011;19219;44.500;11.188;2023-12-20T02:15:23;10.30;;;5.90;;
32864;SDS011;19219;44.500;11.188;2023-12-20T02:17:49;8.82;;;4.80;;
32864;SDS011;19219;44.500;11.188;2023-12-20T02:20:15;19.65;;;6.95;;
32864;SDS011;19219;44.500;11.188;2023-12-20T02:22:41;9.95;;;5.93;;
32864;SDS011;19219;44.500;11.188;2023-12-20T02:25:07;8.38;;;5.47;;
32864;SDS011;19219;44.500;11.188;2023-12-20T02:27:33;14.07;;;6.25;;
32864;SDS011;19219;44.500;11.188;2023-12-20T02:30:00;10.07;;;4.82;;
32864;SDS011;19219;44.500;11.188;2023-12-20T02:32:26;5.25;;;4.10;;
32864;SDS011;19219;44.500;11.188;2023-12-20T02:34:52;8.77;;;5.40;;
32864;SDS011;19219;44.500;11.188;2023-12-20T02:37:18;9.90;;;4.95;;
32864;SDS011;19219;44.500;11.188;2023-12-20T02:39:44;8.75;;;4.80;;
32864;SDS011;19219;44.500;11.188;2023-12-20T02:42:09;9.25;;;5.05;;
32864;SDS011;19219;44.500;11.188;2023-12-20T02:44:35;8.07;;;4.80;;
32864;SDS011;19219;44.500;11.188;2023-12-20T02:47:01;9.45;;;4.72;;
32864;SDS011;19219;44.500;11.188;2023-12-20T02:49:27;9.25;;;5.50;;
32864;SDS011;19219;44.500;11.188;2023-12-20T02:51:53;13.13;;;5.68;;
32864;SDS011;19219;44.500;11.188;2023-12-20T02:54:18;8.23;;;5.20;;
32864;SDS011;19219;44.500;11.188;2023-12-20T02:56:44;10.32;;;5.03;;
32864;SDS011;19219;44.500;11.188;2023-12-20T02:59:10;7.95;;;5.18;;
32864;SDS011;19219;44.500;11.188;2023-12-20T03:01:35;7.18;;;4.65;;
32864;SDS011;19219;44.500;11.188;2023-12-20T03:04:07;10.95;;;5.07;;
32864;SDS011;19219;44.500;11.188;2023-12-20T03:06:33;8.88;;;4.90;;
32864;SDS011;19219;44.500;11.188;2023-12-20T03:08:58;8.02;;;4.55;;
32864;SDS011;19219;44.500;11.188;2023-12-20T03:11:27;10.02;;;4.72;;
32864;SDS011;19219;44.500;11.188;2023-12-20T03:13:53;7.47;;;5.10;;
32864;SDS011;19219;44.500;11.188;2023-12-20T03:16:19;10.70;;;4.95;;
32864;SDS011;19219;44.500;11.188;2023-12-20T03:18:45;10.85;;;5.53;;
32864;SDS011;19219;44.500;11.188;2023-12-20T03:21:11;9.50;;;5.30;;
32864;SDS011;19219;44.500;11.188;2023-12-20T03:23:36;9.98;;;5.28;;
32864;SDS011;19219;44.500;11.188;2023-12-20T03:26:02;11.88;;;5.22;;
32864;SDS011;19219;44.500;11.188;2023-12-20T03:28:29;6.68;;;4.65;;
32864;SDS011;19219;44.500;11.188;2023-12-20T03:30:55;7.22;;;4.35;;
32864;SDS011;19219;44.500;11.188;2023-12-20T03:33:21;9.93;;;4.82;;
32864;SDS011;19219;44.500;11.188;2023-12-20T03:35:47;6.68;;;4.75;;
32864;SDS011;19219;44.500;11.188;2023-12-20T03:38:12;8.18;;;4.40;;
32864;SDS011;19219;44.500;11.188;2023-12-20T03:40:38;6.93;;;4.25;;
32864;SDS011;19219;44.500;11.188;2023-12-20T03:43:04;6.90;;;4.90;;
32864;SDS011;19219;44.500;11.188;2023-12-20T03:45:30;5.65;;;4.35;;
32864;SDS011;19219;44.500;11.188;2023-12-20T03:47:55;8.05;;;5.00;;
32864;SDS011;19219;44.500;11.188;2023-12-20T03:50:24;6.03;;;4.05;;
32864;SDS011;19219;44.500;11.188;2023-12-20T03:52:50;6.90;;;3.90;;
32864;SDS011;19219;44.500;11.188;2023-12-20T03:55:16;7.20;;;4.20;;
32864;SDS011;19219;44.500;11.188;2023-12-20T03:57:42;8.27;;;3.88;;
32864;SDS011;19219;44.500;11.188;2023-12-20T04:00:08;10.48;;;6.00;;
32864;SDS011;19219;44.500;11.188;2023-12-20T04:02:36;6.93;;;4.40;;
32864;SDS011;19219;44.500;11.188;2023-12-20T04:05:05;8.93;;;5.22;;
32864;SDS011;19219;44.500;11.188;2023-12-20T04:07:31;7.45;;;5.10;;
32864;SDS011;19219;44.500;11.188;2023-12-20T04:09:57;9.27;;;5.65;;
32864;SDS011;19219;44.500;11.188;2023-12-20T04:12:23;8.02;;;5.80;;
32864;SDS011;19219;44.500;11.188;2023-12-20T04:14:49;10.38;;;5.00;;
32864;SDS011;19219;44.500;11.188;2023-12-20T04:17:15;7.07;;;5.43;;
32864;SDS011;19219;44.500;11.188;2023-12-20T04:19:42;12.48;;;5.72;;
32864;SDS011;19219;44.500;11.188;2023-12-20T04:22:08;12.95;;;5.82;;
32864;SDS011;19219;44.500;11.188;2023-12-20T04:24:33;11.65;;;6.22;;
32864;SDS011;19219;44.500;11.188;2023-12-20T04:26:59;10.98;;;5.80;;
32864;SDS011;19219;44.500;11.188;2023-12-20T04:29:25;10.40;;;5.43;;
32864;SDS011;19219;44.500;11.188;2023-12-20T04:31:51;16.52;;;7.30;;
32864;SDS011;19219;44.500;11.188;2023-12-20T04:34:17;11.60;;;5.90;;
32864;SDS011;19219;44.500;11.188;2023-12-20T04:36:43;9.10;;;6.40;;
32864;SDS011;19219;44.500;11.188;2023-12-20T04:39:09;11.40;;;6.97;;
32864;SDS011;19219;44.500;11.188;2023-12-20T04:41:35;10.52;;;6.28;;
32864;SDS011;19219;44.500;11.188;2023-12-20T04:44:01;12.93;;;7.28;;
32864;SDS011;19219;44.500;11.188;2023-12-20T04:46:27;14.23;;;6.60;;
32864;SDS011;19219;44.500;11.188;2023-12-20T04:48:53;16.13;;;8.02;;
32864;SDS011;19219;44.500;11.188;2023-12-20T04:51:18;15.48;;;7.75;;
32864;SDS011;19219;44.500;11.188;2023-12-20T04:53:44;15.25;;;8.38;;
32864;SDS011;19219;44.500;11.188;2023-12-20T04:56:10;17.08;;;8.52;;
32864;SDS011;19219;44.500;11.188;2023-12-20T04:58:35;16.75;;;8.15;;
32864;SDS011;19219;44.500;11.188;2023-12-20T05:01:01;13.82;;;8.25;;
32864;SDS011;19219;44.500;11.188;2023-12-20T05:03:27;15.40;;;8.68;;
32864;SDS011;19219;44.500;11.188;2023-12-20T05:05:54;13.23;;;8.02;;
32864;SDS011;19219;44.500;11.188;2023-12-20T05:08:19;14.65;;;8.75;;
32864;SDS011;19219;44.500;11.188;2023-12-20T05:10:45;16.83;;;8.00;;
32864;SDS011;19219;44.500;11.188;2023-12-20T05:13:11;21.60;;;9.05;;
32864;SDS011;19219;44.500;11.188;2023-12-20T05:15:36;16.08;;;7.90;;
32864;SDS011;19219;44.500;11.188;2023-12-20T05:18:02;18.02;;;8.05;;
32864;SDS011;19219;44.500;11.188;2023-12-20T05:20:28;16.55;;;8.23;;
32864;SDS011;19219;44.500;11.188;2023-12-20T05:22:53;11.15;;;5.93;;
32864;SDS011;19219;44.500;11.188;2023-12-20T05:25:19;16.60;;;7.10;;
32864;SDS011;19219;44.500;11.188;2023-12-20T05:27:45;11.95;;;6.78;;
32864;SDS011;19219;44.500;11.188;2023-12-20T05:30:11;13.32;;;7.78;;
32864;SDS011;19219;44.500;11.188;2023-12-20T05:32:36;12.55;;;7.00;;
32864;SDS011;19219;44.500;11.188;2023-12-20T05:35:02;11.82;;;7.13;;
32864;SDS011;19219;44.500;11.188;2023-12-20T05:37:28;10.93;;;6.78;;
32864;SDS011;19219;44.500;11.188;2023-12-20T05:39:54;11.65;;;7.35;;
32864;SDS011;19219;44.500;11.188;2023-12-20T05:42:19;16.25;;;7.20;;
32864;SDS011;19219;44.500;11.188;2023-12-20T05:44:45;13.48;;;7.47;;
32864;SDS011;19219;44.500;11.188;2023-12-20T05:47:10;10.65;;;7.32;;
32864;SDS011;19219;44.500;11.188;2023-12-20T05:49:36;19.08;;;8.73;;
32864;SDS011;19219;44.500;11.188;2023-12-20T05:52:02;13.40;;;7.60;;
32864;SDS011;19219;44.500;11.188;2023-12-20T05:54:28;13.38;;;8.23;;
32864;SDS011;19219;44.500;11.188;2023-12-20T05:56:53;15.30;;;8.68;;
32864;SDS011;19219;44.500;11.188;2023-12-20T05:59:19;47.60;;;22.38;;
32864;SDS011;19219;44.500;11.188;2023-12-20T06:01:45;32.15;;;16.27;;
32864;SDS011;19219;44.500;11.188;2023-12-20T06:04:11;24.08;;;12.00;;
32864;SDS011;19219;44.500;11.188;2023-12-20T06:06:43;15.38;;;8.75;;
32864;SDS011;19219;44.500;11.188;2023-12-20T06:09:09;14.40;;;7.40;;
32864;SDS011;19219;44.500;11.188;2023-12-20T06:11:35;14.02;;;7.47;;
32864;SDS011;19219;44.500;11.188;2023-12-20T06:14:00;14.32;;;7.30;;
32864;SDS011;19219;44.500;11.188;2023-12-20T06:16:26;14.52;;;8.38;;
32864;SDS011;19219;44.500;11.188;2023-12-20T06:18:52;13.93;;;9.07;;
32864;SDS011;19219;44.500;11.188;2023-12-20T06:21:18;183.38;;;73.43;;
32864;SDS011;19219;44.500;11.188;2023-12-20T06:23:44;72.47;;;32.60;;
32864;SDS011;19219;44.500;11.188;2023-12-20T06:26:10;17.42;;;9.57;;
32864;SDS011;19219;44.500;11.188;2023-12-20T06:28:35;11.05;;;7.40;;
32864;SDS011;19219;44.500;11.188;2023-12-20T06:31:01;16.33;;;8.07;;
32864;SDS011;19219;44.500;11.188;2023-12-20T06:33:28;10.63;;;7.55;;
32864;SDS011;19219;44.500;11.188;2023-12-20T06:35:55;120.25;;;55.30;;
32864;SDS011;19219;44.500;11.188;2023-12-20T06:38:21;13.25;;;7.88;;
32864;SDS011;19219;44.500;11.188;2023-12-20T06:40:47;12.68;;;7.20;;
32864;SDS011;19219;44.500;11.188;2023-12-20T06:43:13;10.23;;;6.57;;
32864;SDS011;19219;44.500;11.188;2023-12-20T06:45:39;12.50;;;6.50;;
32864;SDS011;19219;44.500;11.188;2023-12-20T06:48:04;13.70;;;7.35;;
32864;SDS011;19219;44.500;11.188;2023-12-20T06:50:30;12.02;;;6.85;;
32864;SDS011;19219;44.500;11.188;2023-12-20T06:52:56;12.98;;;6.57;;
32864;SDS011;19219;44.500;11.188;2023-12-20T06:55:22;13.15;;;7.28;;
32864;SDS011;19219;44.500;11.188;2023-12-20T06:57:48;9.75;;;7.05;;
32864;SDS011;19219;44.500;11.188;2023-12-20T07:00:14;13.00;;;7.50;;
32864;SDS011;19219;44.500;11.188;2023-12-20T07:02:40;10.90;;;7.10;;
32864;SDS011;19219;44.500;11.188;2023-12-20T07:05:05;10.30;;;6.50;;
32864;SDS011;19219;44.500;11.188;2023-12-20T07:07:31;15.18;;;8.93;;
32864;SDS011;19219;44.500;11.188;2023-12-20T07:09:57;16.40;;;7.50;;
32864;SDS011;19219;44.500;11.188;2023-12-20T07:12:23;17.05;;;7.68;;
32864;SDS011;19219;44.500;11.188;2023-12-20T07:14:49;15.57;;;7.82;;
32864;SDS011;19219;44.500;11.188;2023-12-20T07:17:14;12.25;;;7.70;;
32864;SDS011;19219;44.500;11.188;2023-12-20T07:19:40;15.70;;;7.70;;
32864;SDS011;19219;44.500;11.188;2023-12-20T07:22:06;15.07;;;7.90;;
32864;SDS011;19219;44.500;11.188;2023-12-20T07:24:32;9.77;;;6.93;;
32864;SDS011;19219;44.500;11.188;2023-12-20T07:27:01;17.15;;;8.40;;
32864;SDS011;19219;44.500;11.188;2023-12-20T07:29:27;19.55;;;8.30;;
32864;SDS011;19219;44.500;11.188;2023-12-20T07:31:53;13.88;;;9.23;;
32864;SDS011;19219;44.500;11.188;2023-12-20T07:34:20;12.35;;;8.45;;
32864;SDS011;19219;44.500;11.188;2023-12-20T07:36:45;16.48;;;9.35;;
32864;SDS011;19219;44.500;11.188;2023-12-20T07:39:12;18.15;;;8.18;;
32864;SDS011;19219;44.500;11.188;2023-12-20T07:41:38;12.40;;;7.75;;
32864;SDS011;19219;44.500;11.188;2023-12-20T07:44:04;16.92;;;8.07;;
32864;SDS011;19219;44.500;11.188;2023-12-20T07:46:30;13.70;;;7.88;;
32864;SDS011;19219;44.500;11.188;2023-12-20T07:48:56;10.90;;;7.07;;
32864;SDS011;19219;44.500;11.188;2023-12-20T07:51:21;13.27;;;7.80;;
32864;SDS011;19219;44.500;11.188;2023-12-20T07:53:47;12.82;;;8.55;;
32864;SDS011;19219;44.500;11.188;2023-12-20T07:56:13;16.20;;;8.98;;
32864;SDS011;19219;44.500;11.188;2023-12-20T07:58:43;21.52;;;8.88;;
32864;SDS011;19219;44.500;11.188;2023-12-20T08:01:10;18.35;;;10.55;;
32864;SDS011;19219;44.500;11.188;2023-12-20T08:03:36;19.95;;;10.50;;
32864;SDS011;19219;44.500;11.188;2023-12-20T08:06:02;17.85;;;10.30;;
32864;SDS011;19219;44.500;11.188;2023-12-20T08:08:28;19.70;;;10.35;;
32864;SDS011;19219;44.500;11.188;2023-12-20T08:10:53;19.00;;;11.18;;
32864;SDS011;19219;44.500;11.188;2023-12-20T08:13:19;21.95;;;12.13;;
32864;SDS011;19219;44.500;11.188;2023-12-20T08:15:50;21.73;;;11.82;;
32864;SDS011;19219;44.500;11.188;2023-12-20T08:18:15;27.42;;;12.10;;
32864;SDS011;19219;44.500;11.188;2023-12-20T08:20:41;24.52;;;11.70;;
32864;SDS011;19219;44.500;11.188;2023-12-20T08:23:06;22.33;;;12.93;;
32864;SDS011;19219;44.500;11.188;2023-12-20T08:25:32;20.92;;;11.85;;
32864;SDS011;19219;44.500;11.188;2023-12-20T08:27:58;27.40;;;14.38;;
32864;SDS011;19219;44.500;11.188;2023-12-20T08:30:23;17.02;;;11.90;;
32864;SDS011;19219;44.500;11.188;2023-12-20T08:32:50;24.00;;;12.30;;
32864;SDS011;19219;44.500;11.188;2023-12-20T08:35:15;29.00;;;12.25;;
32864;SDS011;19219;44.500;11.188;2023-12-20T08:37:42;21.70;;;12.18;;
32864;SDS011;19219;44.500;11.188;2023-12-20T08:40:08;23.33;;;11.02;;
32864;SDS011;19219;44.500;11.188;2023-12-20T08:42:34;22.42;;;10.82;;
32864;SDS011;19219;44.500;11.188;2023-12-20T08:45:00;24.52;;;13.98;;
32864;SDS011;19219;44.500;11.188;2023-12-20T08:47:26;26.17;;;12.82;;
32864;SDS011;19219;44.500;11.188;2023-12-20T08:49:52;20.58;;;12.40;;
32864;SDS011;19219;44.500;11.188;2023-12-20T08:52:25;33.08;;;18.63;;
32864;SDS011;19219;44.500;11.188;2023-12-20T08:54:54;34.85;;;19.50;;
32864;SDS011;19219;44.500;11.188;2023-12-20T08:57:20;24.48;;;13.70;;
32864;SDS011;19219;44.500;11.188;2023-12-20T08:59:50;28.05;;;14.43;;
32864;SDS011;19219;44.500;11.188;2023-12-20T09:02:16;32.50;;;16.52;;
32864;SDS011;19219;44.500;11.188;2023-12-20T09:04:42;24.65;;;13.68;;
32864;SDS011;19219;44.500;11.188;2023-12-20T09:07:41;23.42;;;13.80;;
32864;SDS011;19219;44.500;11.188;2023-12-20T09:10:00;21.70;;;13.23;;
32864;SDS011;19219;44.500;11.188;2023-12-20T09:12:25;16.05;;;11.30;;
32864;SDS011;19219;44.500;11.188;2023-12-20T09:14:52;21.08;;;14.32;;
32864;SDS011;19219;44.500;11.188;2023-12-20T09:17:18;19.17;;;12.57;;
32864;SDS011;19219;44.500;11.188;2023-12-20T09:19:45;22.20;;;13.13;;
32864;SDS011;19219;44.500;11.188;2023-12-20T09:22:11;24.65;;;13.13;;
32864;SDS011;19219;44.500;11.188;2023-12-20T09:24:37;19.80;;;12.88;;
32864;SDS011;19219;44.500;11.188;2023-12-20T09:27:04;21.60;;;12.60;;
32864;SDS011;19219;44.500;11.188;2023-12-20T09:29:30;23.92;;;12.25;;
32864;SDS011;19219;44.500;11.188;2023-12-20T09:31:56;22.58;;;13.80;;
32864;SDS011;19219;44.500;11.188;2023-12-20T09:34:22;19.38;;;12.93;;
32864;SDS011;19219;44.500;11.188;2023-12-20T09:36:49;21.50;;;12.88;;
32864;SDS011;19219;44.500;11.188;2023-12-20T09:39:15;22.77;;;12.30;;
32864;SDS011;19219;44.500;11.188;2023-12-20T09:42:10;27.73;;;13.45;;
32864;SDS011;19219;44.500;11.188;2023-12-20T09:44:36;21.75;;;12.40;;
32864;SDS011;19219;44.500;11.188;2023-12-20T09:47:03;23.50;;;12.85;;
32864;SDS011;19219;44.500;11.188;2023-12-20T09:49:29;20.25;;;11.18;;
32864;SDS011;19219;44.500;11.188;2023-12-20T09:51:56;18.58;;;11.40;;
32864;SDS011;19219;44.500;11.188;2023-12-20T09:54:22;26.23;;;14.48;;
32864;SDS011;19219;44.500;11.188;2023-12-20T09:56:48;18.85;;;11.48;;
32864;SDS011;19219;44.500;11.188;2023-12-20T09:59:15;24.08;;;13.50;;
32864;SDS011;19219;44.500;11.188;2023-12-20T10:01:41;20.92;;;12.73;;
32864;SDS011;19219;44.500;11.188;2023-12-20T10:04:08;18.67;;;11.18;;
32864;SDS011;19219;44.500;11.188;2023-12-20T10:06:43;22.83;;;11.47;;
32864;SDS011;19219;44.500;11.188;2023-12-20T10:09:10;16.80;;;10.82;;
32864;SDS011;19219;44.500;11.188;2023-12-20T10:11:37;20.80;;;12.35;;
32864;SDS011;19219;44.500;11.188;2023-12-20T10:14:03;22.10;;;13.35;;
32864;SDS011;19219;44.500;11.188;2023-12-20T10:16:30;23.88;;;13.35;;
32864;SDS011;19219;44.500;11.188;2023-12-20T10:18:56;24.50;;;12.73;;
32864;SDS011;19219;44.500;11.188;2023-12-20T10:21:22;22.98;;;13.02;;
32864;SDS011;19219;44.500;11.188;2023-12-20T10:23:49;30.60;;;18.10;;
32864;SDS011;19219;44.500;11.188;2023-12-20T10:26:22;19.85;;;12.43;;
32864;SDS011;19219;44.500;11.188;2023-12-20T10:28:55;28.75;;;16.10;;
32864;SDS011;19219;44.500;11.188;2023-12-20T10:31:29;21.42;;;12.90;;
32864;SDS011;19219;44.500;11.188;2023-12-20T10:33:56;22.73;;;13.65;;
32864;SDS011;19219;44.500;11.188;2023-12-20T10:36:23;34.10;;;17.88;;
32864;SDS011;19219;44.500;11.188;2023-12-20T10:38:53;35.15;;;17.13;;
32864;SDS011;19219;44.500;11.188;2023-12-20T10:41:24;26.58;;;14.73;;
32864;SDS011;19219;44.500;11.188;2023-12-20T10:46:17;22.98;;;13.15;;
32864;SDS011;19219;44.500;11.188;2023-12-20T10:48:45;22.35;;;14.73;;
32864;SDS011;19219;44.500;11.188;2023-12-20T10:51:12;30.50;;;13.90;;
32864;SDS011;19219;44.500;11.188;2023-12-20T10:53:42;22.92;;;13.60;;
32864;SDS011;19219;44.500;11.188;2023-12-20T10:56:08;24.92;;;13.90;;
32864;SDS011;19219;44.500;11.188;2023-12-20T10:58:40;21.70;;;13.48;;
32864;SDS011;19219;44.500;11.188;2023-12-20T11:01:10;21.70;;;13.90;;
32864;SDS011;19219;44.500;11.188;2023-12-20T11:03:46;23.00;;;12.30;;
32864;SDS011;19219;44.500;11.188;2023-12-20T11:09:00;21.08;;;12.50;;
32864;SDS011;19219;44.500;11.188;2023-12-20T11:11:41;21.50;;;14.07;;
32864;SDS011;19219;44.500;11.188;2023-12-20T11:14:34;20.73;;;12.48;;
32864;SDS011;19219;44.500;11.188;2023-12-20T11:17:09;21.40;;;12.02;;
32864;SDS011;19219;44.500;11.188;2023-12-20T11:19:43;24.58;;;13.10;;
32864;SDS011;19219;44.500;11.188;2023-12-20T11:22:29;21.92;;;12.50;;
32864;SDS011;19219;44.500;11.188;2023-12-20T11:27:36;31.17;;;15.50;;
32864;SDS011;19219;44.500;11.188;2023-12-20T11:30:05;26.35;;;14.45;;
32864;SDS011;19219;44.500;11.188;2023-12-20T11:32:33;26.10;;;12.88;;
32864;SDS011;19219;44.500;11.188;2023-12-20T11:37:37;22.30;;;12.60;;
32864;SDS011;19219;44.500;11.188;2023-12-20T11:40:08;24.20;;;13.68;;
32864;SDS011;19219;44.500;11.188;2023-12-20T11:42:40;28.13;;;15.98;;
32864;SDS011;19219;44.500;11.188;2023-12-20T11:45:19;32.03;;;17.80;;
32864;SDS011;19219;44.500;11.188;2023-12-20T11:47:47;39.35;;;20.40;;
32864;SDS011;19219;44.500;11.188;2023-12-20T11:50:15;53.60;;;31.70;;
32864;SDS011;19219;44.500;11.188;2023-12-20T11:52:41;33.20;;;20.70;;
32864;SDS011;19219;44.500;11.188;2023-12-20T11:55:07;36.65;;;20.92;;
32864;SDS011;19219;44.500;11.188;2023-12-20T11:57:33;33.40;;;20.40;;
32864;SDS011;19219;44.500;11.188;2023-12-20T11:59:59;43.28;;;23.73;;
32864;SDS011;19219;44.500;11.188;2023-12-20T12:02:25;38.97;;;22.25;;
32864;SDS011;19219;44.500;11.188;2023-12-20T12:04:51;38.30;;;22.50;;
32864;SDS011;19219;44.500;11.188;2023-12-20T12:07:17;44.80;;;23.77;;
32864;SDS011;19219;44.500;11.188;2023-12-20T12:09:43;37.83;;;22.38;;
32864;SDS011;19219;44.500;11.188;2023-12-20T12:12:09;37.15;;;26.13;;
32864;SDS011;19219;44.500;11.188;2023-12-20T12:14:37;42.83;;;28.63;;
32864;SDS011;19219;44.500;11.188;2023-12-20T12:17:03;38.13;;;22.23;;
32864;SDS011;19219;44.500;11.188;2023-12-20T12:19:29;34.90;;;21.20;;
32864;SDS011;19219;44.500;11.188;2023-12-20T12:22:05;34.80;;;22.20;;
32864;SDS011;19219;44.500;11.188;2023-12-20T12:24:44;39.03;;;23.35;;
32864;SDS011;19219;44.500;11.188;2023-12-20T12:27:11;43.28;;;23.92;;
32864;SDS011;19219;44.500;11.188;2023-12-20T12:29:38;43.38;;;26.00;;
32864;SDS011;19219;44.500;11.188;2023-12-20T12:32:04;53.72;;;37.65;;
32864;SDS011;19219;44.500;11.188;2023-12-20T12:34:34;38.78;;;24.83;;
32864;SDS011;19219;44.500;11.188;2023-12-20T12:37:01;37.13;;;23.90;;
32864;SDS011;19219;44.500;11.188;2023-12-20T12:39:27;39.42;;;22.10;;
32864;SDS011;19219;44.500;11.188;2023-12-20T12:41:54;38.42;;;22.25;;
32864;SDS011;19219;44.500;11.188;2023-12-20T12:44:22;31.35;;;20.58;;
32864;SDS011;19219;44.500;11.188;2023-12-20T12:46:50;39.65;;;22.50;;
32864;SDS011;19219;44.500;11.188;2023-12-20T12:49:16;33.25;;;19.85;;
32864;SDS011;19219;44.500;11.188;2023-12-20T12:51:42;30.48;;;19.33;;
32864;SDS011;19219;44.500;11.188;2023-12-20T12:54:08;31.25;;;20.25;;
32864;SDS011;19219;44.500;11.188;2023-12-20T12:56:35;35.10;;;21.00;;
32864;SDS011;19219;44.500;11.188;2023-12-20T12:59:01;29.92;;;17.98;;
32864;SDS011;19219;44.500;11.188;2023-12-20T13:01:27;31.45;;;19.13;;
32864;SDS011;19219;44.500;11.188;2023-12-20T13:03:53;29.88;;;18.48;;
32864;SDS011;19219;44.500;11.188;2023-12-20T13:06:19;36.13;;;19.75;;
32864;SDS011;19219;44.500;11.188;2023-12-20T13:08:45;138.13;;;73.95;;
32864;SDS011;19219;44.500;11.188;2023-12-20T13:11:11;39.47;;;22.65;;
32864;SDS011;19219;44.500;11.188;2023-12-20T13:13:36;32.97;;;22.27;;
32864;SDS011;19219;44.500;11.188;2023-12-20T13:16:02;39.67;;;22.17;;
32864;SDS011;19219;44.500;11.188;2023-12-20T13:18:28;41.80;;;21.67;;
32864;SDS011;19219;44.500;11.188;2023-12-20T13:20:53;37.17;;;21.17;;
32864;SDS011;19219;44.500;11.188;2023-12-20T13:23:19;38.38;;;20.20;;
32864;SDS011;19219;44.500;11.188;2023-12-20T13:25:45;38.25;;;21.73;;
32864;SDS011;19219;44.500;11.188;2023-12-20T13:28:11;36.33;;;19.63;;
32864;SDS011;19219;44.500;11.188;2023-12-20T13:30:38;52.33;;;34.33;;
32864;SDS011;19219;44.500;11.188;2023-12-20T13:33:04;91.50;;;47.15;;
32864;SDS011;19219;44.500;11.188;2023-12-20T13:35:31;79.03;;;42.58;;
32864;SDS011;19219;44.500;11.188;2023-12-20T13:37:57;75.32;;;39.67;;
32864;SDS011;19219;44.500;11.188;2023-12-20T13:40:24;42.67;;;22.63;;
32864;SDS011;19219;44.500;11.188;2023-12-20T13:42:49;41.05;;;22.73;;
32864;SDS011;19219;44.500;11.188;2023-12-20T13:45:15;34.00;;;22.50;;
32864;SDS011;19219;44.500;11.188;2023-12-20T13:47:41;38.50;;;22.98;;
32864;SDS011;19219;44.500;11.188;2023-12-20T13:50:07;38.60;;;23.27;;
32864;SDS011;19219;44.500;11.188;2023-12-20T13:52:33;35.17;;;22.58;;
32864;SDS011;19219;44.500;11.188;2023-12-20T13:54:58;43.00;;;24.35;;
32864;SDS011;19219;44.500;11.188;2023-12-20T13:57:24;38.00;;;22.80;;
32864;SDS011;19219;44.500;11.188;2023-12-20T13:59:50;33.55;;;21.80;;
32864;SDS011;19219;44.500;11.188;2023-12-20T14:02:15;36.50;;;23.35;;
32864;SDS011;19219;44.500;11.188;2023-12-20T14:04:44;39.22;;;22.67;;
32864;SDS011;19219;44.500;11.188;2023-12-20T14:07:10;37.97;;;23.13;;
32864;SDS011;19219;44.500;11.188;2023-12-20T14:09:36;32.53;;;21.48;;
32864;SDS011;19219;44.500;11.188;2023-12-20T14:12:01;42.78;;;22.77;;
32864;SDS011;19219;44.500;11.188;2023-12-20T14:14:27;47.25;;;24.20;;
32864;SDS011;19219;44.500;11.188;2023-12-20T14:16:53;44.60;;;24.65;;
32864;SDS011;19219;44.500;11.188;2023-12-20T14:19:18;39.70;;;22.10;;
32864;SDS011;19219;44.500;11.188;2023-12-20T14:21:44;37.60;;;22.77;;
32864;SDS011;19219;44.500;11.188;2023-12-20T14:24:13;60.38;;;32.13;;
32864;SDS011;19219;44.500;11.188;2023-12-20T14:26:40;46.33;;;27.00;;